Unity Village, Missouri
Current Conditions -  °F | °C
As of 9:53 AM on Tuesday 27 Jan 2015 (Local Time) from KLXT Reporting Station
Clear Clear  
Wind Chill: 38°   Ceiling: Unl
Heat Index: 42°   Visibility: 10mi
Dew Point: 32°   Wind: 6mph
Humidity: 67%   Direction: 60°ENE
Pressure: 30.17"   Gusts: NA
Location:  38.9847°N, 94.3634°W
Report Text: KLXT 271553Z AUTO 06005KT 10SM CLR 06/00 A3017 RMK AO2 SLP222 T00560000
Loading
Personal Weather Stations






























Interactive Weather Map New forecast layout! Learn more

10-Day Weather Forecast

Advertisements
Track Severe Weather on mobile